Terminal Aerodrome Forecast
Issued by NWS

Home | Current Version | Previous Version | Text Only | Print | Product List | Glossary On
Versions: 1 2 3 4 5 6 7 8 9 10 11 12 13 14 15 16 17 18
000
FTUS46 KMTR 241738
TAFSNS
TAF
KSNS 241738Z 2418/2518 28004KT P6SM BKN012
     FM241900 28010KT P6SM FEW012
     FM250200 28007KT P6SM SCT010
      TEMPO 2502/2506 BKN010
     FM250600 31003KT 6SM BR OVC007=

USA.gov is the U.S. government's official web portal to all federal, state and local government web resources and services.